createdAt,value
2016-12-30T00:00:32.216Z,0
2016-12-30T00:01:32.264Z,0
2016-12-30T00:02:32.325Z,0
2016-12-30T00:03:32.387Z,0
2016-12-30T00:04:32.428Z,0
2016-12-30T00:05:32.495Z,0
2016-12-30T00:06:32.552Z,0
2016-12-30T00:07:32.614Z,0
2016-12-30T00:08:32.659Z,0
2016-12-30T00:09:32.731Z,0
2016-12-30T00:10:47.705Z,0
2016-12-30T00:11:32.840Z,0
2016-12-30T00:12:32.892Z,0
2016-12-30T00:13:32.960Z,0
2016-12-30T00:14:33.005Z,0
2016-12-30T00:15:33.063Z,0
2016-12-30T00:16:33.120Z,0
2016-12-30T00:17:33.185Z,0
2016-12-30T00:19:33.287Z,0
2016-12-30T00:20:33.342Z,0
2016-12-30T00:21:48.338Z,0
2016-12-30T00:23:33.517Z,0
2016-12-30T00:24:33.587Z,0
2016-12-30T00:25:33.638Z,0
2016-12-30T00:26:34.067Z,0
2016-12-30T00:27:48.671Z,0
2016-12-30T00:28:33.808Z,0
2016-12-30T00:29:33.856Z,0
2016-12-30T00:30:33.921Z,0
2016-12-30T00:31:33.974Z,0
2016-12-30T00:32:34.028Z,0
2016-12-30T00:33:34.078Z,0
2016-12-30T00:34:34.141Z,0
2016-12-30T00:35:34.197Z,0
2016-12-30T00:36:34.254Z,0
2016-12-30T00:37:34.305Z,0
2016-12-30T00:38:34.359Z,0
2016-12-30T00:39:34.427Z,0
2016-12-30T00:40:34.486Z,0
2016-12-30T00:41:34.527Z,0
2016-12-30T00:42:34.584Z,0
2016-12-30T00:43:34.649Z,0
2016-12-30T00:44:34.710Z,0
2016-12-30T00:45:34.762Z,0
2016-12-30T00:46:34.804Z,0
2016-12-30T00:47:34.869Z,0
2016-12-30T00:48:34.927Z,0
2016-12-30T00:49:34.988Z,0
2016-12-30T00:50:35.035Z,0
2016-12-30T00:51:35.097Z,0
2016-12-30T00:52:35.147Z,0
2016-12-30T00:53:35.208Z,0
2016-12-30T00:54:35.259Z,0
2016-12-30T00:55:35.322Z,0
2016-12-30T00:56:35.378Z,0
2016-12-30T00:57:35.420Z,0
2016-12-30T00:58:35.486Z,0
2016-12-30T00:59:35.542Z,0
2016-12-30T01:00:35.605Z,0
2016-12-30T01:01:50.580Z,0
2016-12-30T01:02:35.700Z,0
2016-12-30T01:03:35.759Z,0
2016-12-30T01:04:35.825Z,0
2016-12-30T01:05:35.875Z,0
2016-12-30T01:06:35.932Z,0
2016-12-30T01:07:35.991Z,0
2016-12-30T01:08:36.049Z,0
2016-12-30T01:09:36.112Z,0
2016-12-30T01:10:36.154Z,0
2016-12-30T01:11:36.592Z,0
2016-12-30T01:12:36.274Z,0
2016-12-30T01:13:36.324Z,0
2016-12-30T01:14:36.374Z,0
2016-12-30T01:15:36.430Z,0
2016-12-30T01:16:36.491Z,0
2016-12-30T01:17:36.552Z,0
2016-12-30T01:18:36.612Z,0
2016-12-30T01:19:36.673Z,0
2016-12-30T01:20:36.724Z,0
2016-12-30T01:21:36.782Z,0
2016-12-30T01:22:36.833Z,0
2016-12-30T01:23:36.883Z,0
2016-12-30T01:24:36.940Z,0
2016-12-30T01:25:37.001Z,0
2016-12-30T01:26:37.068Z,0
2016-12-30T01:27:37.109Z,0
2016-12-30T01:28:37.175Z,0
2016-12-30T01:29:37.257Z,0
2016-12-30T01:30:37.278Z,0
2016-12-30T01:31:37.340Z,0
2016-12-30T01:32:37.403Z,0
2016-12-30T01:33:37.456Z,0
2016-12-30T01:34:37.508Z,0
2016-12-30T01:35:37.570Z,0
2016-12-30T01:36:37.622Z,0
2016-12-30T01:39:52.717Z,0
2016-12-30T01:40:37.852Z,0
2016-12-30T01:41:37.892Z,0
2016-12-30T01:42:37.960Z,0
2016-12-30T01:43:38.008Z,0
2016-12-30T01:44:38.071Z,0
2016-12-30T01:45:38.124Z,0
2016-12-30T01:46:38.188Z,0
2016-12-30T01:47:38.248Z,0
2016-12-30T01:48:38.296Z,0
2016-12-30T01:49:38.342Z,0
2016-12-30T01:50:38.402Z,0
2016-12-30T01:51:38.463Z,0
2016-12-30T01:52:38.521Z,0
2016-12-30T01:53:38.581Z,0
2016-12-30T01:54:38.634Z,0
2016-12-30T01:55:38.691Z,0
2016-12-30T01:56:38.745Z,0
2016-12-30T01:57:38.785Z,0
2016-12-30T01:58:38.855Z,0
2016-12-30T01:59:38.906Z,0
2016-12-30T02:00:38.968Z,0
2016-12-30T02:01:39.023Z,0
2016-12-30T02:02:39.085Z,0
2016-12-30T02:03:39.120Z,0
2016-12-30T02:04:39.196Z,0
2016-12-30T02:05:39.242Z,0
2016-12-30T02:06:39.302Z,0
2016-12-30T02:07:39.353Z,0
2016-12-30T02:08:39.400Z,0
2016-12-30T02:09:39.467Z,0
2016-12-30T02:10:39.515Z,0
2016-12-30T02:11:39.576Z,0
2016-12-30T02:12:39.636Z,0
2016-12-30T02:13:39.688Z,0
2016-12-30T02:14:39.747Z,0
2016-12-30T02:15:39.892Z,0
2016-12-30T02:16:39.850Z,0
2016-12-30T02:17:39.910Z,0
2016-12-30T02:18:39.967Z,0
2016-12-30T02:19:40.028Z,0
2016-12-30T02:20:40.092Z,0
2016-12-30T02:21:40.131Z,0
2016-12-30T02:22:40.186Z,0
2016-12-30T02:23:40.253Z,0
2016-12-30T02:24:40.315Z,0
2016-12-30T02:25:40.362Z,0
2016-12-30T02:26:40.449Z,0
2016-12-30T02:27:40.473Z,0
2016-12-30T02:28:40.530Z,0
2016-12-30T02:29:40.582Z,0
2016-12-30T02:30:40.652Z,0
2016-12-30T02:31:40.707Z,0
2016-12-30T02:32:40.957Z,0
2016-12-30T02:33:41.015Z,0
2016-12-30T02:34:40.876Z,0
2016-12-30T02:35:40.933Z,0
2016-12-30T02:36:40.987Z,0
2016-12-30T02:37:41.043Z,0
2016-12-30T02:38:41.099Z,0
2016-12-30T02:39:41.148Z,0
2016-12-30T02:40:41.211Z,0
2016-12-30T02:41:41.271Z,0
2016-12-30T02:42:41.309Z,0
2016-12-30T02:43:41.372Z,0
2016-12-30T02:44:41.423Z,0
2016-12-30T02:45:41.485Z,0
2016-12-30T02:46:41.542Z,0
2016-12-30T02:47:41.589Z,0
2016-12-30T02:48:41.649Z,0
2016-12-30T02:49:41.709Z,0
2016-12-30T02:50:41.762Z,0
2016-12-30T02:51:41.826Z,0
2016-12-30T02:52:41.866Z,0
2016-12-30T02:53:41.935Z,0
2016-12-30T02:54:41.982Z,0
2016-12-30T02:55:42.046Z,0
2016-12-30T02:56:42.107Z,0
2016-12-30T02:57:42.145Z,0
2016-12-30T02:58:42.207Z,0
2016-12-30T02:59:42.266Z,0
2016-12-30T03:00:42.335Z,0
2016-12-30T03:01:42.579Z,0
2016-12-30T03:02:42.436Z,0
2016-12-30T03:03:42.491Z,0
2016-12-30T03:04:42.543Z,0
2016-12-30T03:05:42.594Z,0
2016-12-30T03:06:42.854Z,0
2016-12-30T03:07:42.711Z,0
2016-12-30T03:08:42.779Z,0
2016-12-30T03:09:42.830Z,0
2016-12-30T03:10:42.884Z,0
2016-12-30T03:11:42.930Z,0
2016-12-30T03:12:42.980Z,0
2016-12-30T03:13:43.049Z,0
2016-12-30T03:14:43.095Z,0
2016-12-30T03:15:43.173Z,0
2016-12-30T03:16:43.220Z,0
2016-12-30T03:17:43.260Z,0
2016-12-30T03:18:43.327Z,0
2016-12-30T03:19:43.376Z,0
2016-12-30T03:20:43.433Z,0
2016-12-30T03:21:43.496Z,0
2016-12-30T03:22:43.548Z,0
2016-12-30T03:23:43.606Z,0
2016-12-30T03:24:43.654Z,0
2016-12-30T03:25:43.723Z,0
2016-12-30T03:26:43.764Z,0
2016-12-30T03:27:43.832Z,0
2016-12-30T03:28:43.880Z,0
2016-12-30T03:29:44.121Z,0
2016-12-30T03:30:44.208Z,0
2016-12-30T03:31:44.057Z,0
2016-12-30T03:32:44.111Z,0
2016-12-30T03:33:44.154Z,0
2016-12-30T03:34:44.217Z,0
2016-12-30T03:35:44.285Z,0
2016-12-30T03:36:44.327Z,0
2016-12-30T03:37:44.389Z,0
2016-12-30T03:38:44.445Z,0
2016-12-30T03:39:44.508Z,0
2016-12-30T03:40:44.557Z,0
2016-12-30T03:41:44.614Z,0
2016-12-30T03:42:44.667Z,0
2016-12-30T03:43:44.734Z,0
2016-12-30T03:44:44.786Z,0
2016-12-30T03:45:44.844Z,0
2016-12-30T03:46:44.899Z,0
2016-12-30T03:47:44.945Z,0
2016-12-30T03:48:44.996Z,0
2016-12-30T03:49:45.072Z,0
2016-12-30T03:50:45.124Z,0
2016-12-30T03:51:45.164Z,0
2016-12-30T03:52:45.226Z,0
2016-12-30T03:53:45.287Z,0
2016-12-30T03:54:45.345Z,0
2016-12-30T03:55:45.442Z,0
2016-12-30T03:56:45.447Z,0
2016-12-30T03:57:45.514Z,0
2016-12-30T03:58:45.771Z,0
2016-12-30T03:59:45.654Z,0
2016-12-30T04:00:45.883Z,0
2016-12-30T04:01:45.736Z,0
2016-12-30T04:02:45.792Z,0
2016-12-30T04:03:45.854Z,0
2016-12-30T04:04:45.909Z,0
2016-12-30T04:05:45.957Z,0
2016-12-30T04:06:46.017Z,0
2016-12-30T04:07:46.085Z,0
2016-12-30T04:08:46.134Z,0
2016-12-30T04:09:46.193Z,0
2016-12-30T04:10:46.257Z,0
2016-12-30T04:11:46.302Z,0
2016-12-30T04:12:46.360Z,0
2016-12-30T04:13:46.425Z,0
2016-12-30T04:14:46.480Z,0
2016-12-30T04:15:46.532Z,0
2016-12-30T04:16:46.595Z,0
2016-12-30T04:17:46.652Z,0
2016-12-30T04:18:46.697Z,0
2016-12-30T04:19:46.758Z,0
2016-12-30T04:20:46.812Z,0
2016-12-30T04:21:46.877Z,0
2016-12-30T04:22:46.932Z,0
2016-12-30T04:23:46.990Z,0
2016-12-30T04:24:47.042Z,0
2016-12-30T04:25:47.129Z,0
2016-12-30T04:26:47.364Z,0
2016-12-30T04:27:47.418Z,0
2016-12-30T04:28:47.274Z,0
2016-12-30T04:29:47.337Z,0
2016-12-30T04:30:47.376Z,0
2016-12-30T04:31:47.450Z,0
2016-12-30T04:32:47.502Z,0
2016-12-30T04:33:47.562Z,0
2016-12-30T04:34:47.614Z,0
2016-12-30T04:35:47.672Z,0
2016-12-30T04:36:47.723Z,0
2016-12-30T04:37:47.785Z,0
2016-12-30T04:38:47.835Z,0
2016-12-30T04:39:47.901Z,0
2016-12-30T04:40:47.980Z,0
2016-12-30T04:41:48.014Z,0
2016-12-30T04:42:48.058Z,0
2016-12-30T04:43:48.112Z,0
2016-12-30T04:44:48.171Z,0
2016-12-30T04:45:48.236Z,0
2016-12-30T04:46:48.284Z,0
2016-12-30T04:47:48.352Z,0
2016-12-30T04:48:48.401Z,0
2016-12-30T04:49:48.447Z,0
2016-12-30T04:50:48.524Z,0
2016-12-30T04:51:48.564Z,0
2016-12-30T04:52:48.625Z,0
2016-12-30T04:53:48.680Z,0
2016-12-30T04:54:48.928Z,0
2016-12-30T04:55:48.790Z,0
2016-12-30T04:56:48.859Z,0
2016-12-30T04:57:48.907Z,0
2016-12-30T04:58:48.971Z,0
2016-12-30T04:59:49.018Z,0
2016-12-30T05:00:49.114Z,0
2016-12-30T05:01:49.125Z,0
2016-12-30T05:02:49.189Z,0
2016-12-30T05:03:49.247Z,0
2016-12-30T05:04:49.293Z,0
2016-12-30T05:05:49.353Z,0
2016-12-30T05:06:49.400Z,0
2016-12-30T05:07:49.468Z,0
2016-12-30T05:08:49.512Z,0
2016-12-30T05:09:49.575Z,0
2016-12-30T05:10:49.647Z,0
2016-12-30T05:11:49.679Z,0
2016-12-30T05:12:49.739Z,0
2016-12-30T05:13:49.795Z,0
2016-12-30T05:14:49.854Z,0
2016-12-30T05:15:49.906Z,0
2016-12-30T05:16:49.971Z,0
2016-12-30T05:17:50.008Z,0
2016-12-30T05:18:50.067Z,0
2016-12-30T05:19:50.130Z,0
2016-12-30T05:20:50.178Z,0
2016-12-30T05:21:50.238Z,0
2016-12-30T05:22:50.297Z,0
2016-12-30T05:23:50.346Z,0
2016-12-30T05:24:50.403Z,0
2016-12-30T05:25:50.461Z,0
2016-12-30T05:26:50.540Z,0
2016-12-30T05:27:50.576Z,0
2016-12-30T05:28:50.631Z,0
2016-12-30T05:29:50.690Z,0
2016-12-30T05:30:50.738Z,0
2016-12-30T05:31:50.802Z,0
2016-12-30T05:32:50.846Z,0
2016-12-30T05:33:50.919Z,0
2016-12-30T05:34:50.965Z,0
2016-12-30T05:35:51.029Z,0
2016-12-30T05:36:51.080Z,0
2016-12-30T05:37:51.136Z,0
2016-12-30T05:38:51.188Z,0
2016-12-30T05:39:51.241Z,0
2016-12-30T05:40:51.302Z,0
2016-12-30T05:41:51.369Z,0
2016-12-30T05:42:51.416Z,0
2016-12-30T05:43:51.469Z,0
2016-12-30T05:44:51.531Z,0
2016-12-30T05:45:51.580Z,0
2016-12-30T05:46:51.638Z,0
2016-12-30T05:47:51.699Z,0
2016-12-30T05:48:51.753Z,0
2016-12-30T05:49:51.806Z,0
2016-12-30T05:50:51.857Z,0
2016-12-30T05:51:51.920Z,0
2016-12-30T05:52:51.968Z,0
2016-12-30T05:53:52.031Z,0
2016-12-30T05:54:52.115Z,0
2016-12-30T05:55:52.138Z,0
2016-12-30T05:56:52.200Z,0
2016-12-30T05:57:52.254Z,0
2016-12-30T05:58:52.299Z,0
2016-12-30T05:59:52.364Z,0
2016-12-30T06:00:52.416Z,0
2016-12-30T06:01:52.473Z,0
2016-12-30T06:02:52.537Z,0
2016-12-30T06:03:52.589Z,0
2016-12-30T06:04:52.637Z,0
2016-12-30T06:05:52.691Z,0
2016-12-30T06:06:52.748Z,0
2016-12-30T06:07:52.813Z,0
2016-12-30T06:08:52.866Z,0
2016-12-30T06:09:52.925Z,0
2016-12-30T06:10:52.975Z,0
2016-12-30T06:11:53.032Z,0
2016-12-30T06:12:53.087Z,0
2016-12-30T06:13:53.150Z,0
2016-12-30T06:14:53.197Z,0
2016-12-30T06:15:53.258Z,0
2016-12-30T06:16:53.315Z,0
2016-12-30T06:17:53.364Z,0
2016-12-30T06:18:53.424Z,0
2016-12-30T06:19:53.474Z,0
2016-12-30T06:20:53.531Z,0
2016-12-30T06:21:53.591Z,0
2016-12-30T06:22:53.641Z,0
2016-12-30T06:23:53.696Z,0
2016-12-30T06:24:53.750Z,0
2016-12-30T06:25:53.808Z,0
2016-12-30T06:26:53.869Z,0
2016-12-30T06:27:53.915Z,0
2016-12-30T06:28:53.963Z,0
2016-12-30T06:29:54.035Z,0
2016-12-30T06:30:54.090Z,4
2016-12-30T06:31:54.134Z,4
2016-12-30T06:32:54.191Z,0
2016-12-30T06:33:54.254Z,4
2016-12-30T06:34:54.298Z,4
2016-12-30T06:35:54.361Z,4
2016-12-30T06:36:54.420Z,4
2016-12-30T06:37:54.474Z,4
2016-12-30T06:38:54.538Z,8
2016-12-30T06:39:54.588Z,8
2016-12-30T06:40:54.649Z,8
2016-12-30T06:41:54.700Z,12
2016-12-30T06:42:54.757Z,12
2016-12-30T06:43:54.814Z,16
2016-12-30T06:44:54.860Z,16
2016-12-30T06:45:54.933Z,20
2016-12-30T06:46:54.982Z,24
2016-12-30T06:47:55.034Z,24
2016-12-30T06:48:55.087Z,32
2016-12-30T06:49:55.145Z,32
2016-12-30T06:50:55.209Z,40
2016-12-30T06:51:55.257Z,44
2016-12-30T06:52:55.312Z,48
2016-12-30T06:53:55.364Z,56
2016-12-30T06:54:55.420Z,60
2016-12-30T06:55:55.487Z,68
2016-12-30T06:56:55.539Z,76
2016-12-30T06:57:55.600Z,84
2016-12-30T06:58:55.651Z,92
2016-12-30T06:59:55.704Z,100
2016-12-30T07:00:55.760Z,116
2016-12-30T07:01:56.219Z,124
2016-12-30T07:02:55.874Z,132
2016-12-30T07:03:55.935Z,144
2016-12-30T07:04:55.979Z,156
2016-12-30T07:05:56.046Z,168
2016-12-30T07:06:56.098Z,184
2016-12-30T07:07:56.151Z,204
2016-12-30T07:08:56.213Z,228
2016-12-30T07:09:56.271Z,248
2016-12-30T07:10:56.322Z,268
2016-12-30T07:11:56.384Z,284
2016-12-30T07:12:56.446Z,300
2016-12-30T07:13:56.498Z,320
2016-12-30T07:14:56.553Z,344
2016-12-30T07:15:56.611Z,360
2016-12-30T07:16:56.668Z,380
2016-12-30T07:17:56.720Z,400
2016-12-30T07:18:56.781Z,420
2016-12-30T07:19:56.839Z,444
2016-12-30T07:20:56.890Z,464
2016-12-30T07:21:56.943Z,488
2016-12-30T07:22:56.996Z,508
2016-12-30T07:23:57.077Z,528
2016-12-30T07:24:57.119Z,552
2016-12-30T07:25:57.166Z,572
2016-12-30T07:26:57.221Z,592
2016-12-30T07:27:57.303Z,608
2016-12-30T07:28:57.336Z,632
2016-12-30T07:29:57.381Z,656
2016-12-30T07:30:57.445Z,676
2016-12-30T07:31:57.510Z,692
2016-12-30T07:32:57.559Z,708
2016-12-30T07:33:57.615Z,728
2016-12-30T07:34:57.673Z,752
2016-12-30T07:35:57.725Z,768
2016-12-30T07:36:57.789Z,792
2016-12-30T07:37:57.850Z,808
2016-12-30T07:38:57.894Z,828
2016-12-30T07:39:57.955Z,848
2016-12-30T07:40:58.004Z,868
2016-12-30T07:41:58.066Z,884
2016-12-30T07:42:58.128Z,904
2016-12-30T07:43:58.176Z,924
2016-12-30T07:44:58.227Z,952
2016-12-30T07:45:58.287Z,964
2016-12-30T07:46:58.348Z,980
2016-12-30T07:47:58.404Z,992
2016-12-30T07:48:58.458Z,1008
2016-12-30T07:49:58.508Z,1024
2016-12-30T07:50:58.570Z,1040
2016-12-30T07:51:58.630Z,1056
2016-12-30T07:52:58.679Z,1072
2016-12-30T07:53:58.738Z,1092
2016-12-30T07:54:58.802Z,1104
2016-12-30T07:55:58.839Z,1120
2016-12-30T07:56:58.903Z,1136
2016-12-30T07:57:58.959Z,1148
2016-12-30T07:58:59.021Z,1168
2016-12-30T07:59:59.062Z,1196
2016-12-30T08:00:59.130Z,1200
2016-12-30T08:01:59.180Z,1204
2016-12-30T08:02:59.240Z,1212
2016-12-30T08:03:59.287Z,1220
2016-12-30T08:04:59.345Z,1228
2016-12-30T08:05:59.399Z,1240
2016-12-30T08:06:59.484Z,1256
2016-12-30T08:07:59.521Z,1272
2016-12-30T08:08:59.577Z,1288
2016-12-30T08:09:59.656Z,1304
2016-12-30T08:10:59.686Z,1316
2016-12-30T08:11:59.747Z,1332
2016-12-30T08:12:59.805Z,1344
2016-12-30T08:13:59.858Z,1360
2016-12-30T08:14:59.911Z,1396
2016-12-30T08:15:59.978Z,1404
2016-12-30T08:17:00.029Z,1412
2016-12-30T08:18:00.075Z,1424
2016-12-30T08:19:00.143Z,1440
2016-12-30T08:20:00.192Z,1452
2016-12-30T08:21:00.247Z,1464
2016-12-30T08:22:00.303Z,1476
2016-12-30T08:23:00.366Z,1492
2016-12-30T08:24:00.419Z,1508
2016-12-30T08:25:00.472Z,1524
2016-12-30T08:26:00.546Z,1536
2016-12-30T08:27:00.592Z,1560
2016-12-30T08:28:00.650Z,1576
2016-12-30T08:29:00.710Z,1592
2016-12-30T08:30:00.771Z,1624
2016-12-30T08:31:00.825Z,1632
2016-12-30T08:32:00.873Z,1636
2016-12-30T08:33:00.926Z,1644
2016-12-30T08:34:00.997Z,1656
2016-12-30T08:35:01.055Z,1668
2016-12-30T08:36:01.111Z,1676
2016-12-30T08:37:01.159Z,1684
2016-12-30T08:38:01.213Z,1684
2016-12-30T08:39:01.272Z,1684
2016-12-30T08:40:01.342Z,1680
2016-12-30T08:41:01.404Z,1692
2016-12-30T08:42:01.445Z,1720
2016-12-30T08:43:01.518Z,1744
2016-12-30T08:44:01.562Z,1764
2016-12-30T08:45:01.627Z,1808
2016-12-30T08:46:01.681Z,1828
2016-12-30T08:47:01.740Z,1848
2016-12-30T08:48:01.793Z,1872
2016-12-30T08:49:02.252Z,1896
2016-12-30T08:50:01.915Z,1916
2016-12-30T08:51:01.965Z,1936
2016-12-30T08:52:02.026Z,1956
2016-12-30T08:53:02.090Z,1976
2016-12-30T08:54:02.166Z,1996
2016-12-30T08:55:02.623Z,2012
2016-12-30T08:56:02.254Z,2032
2016-12-30T08:57:02.348Z,2052
2016-12-30T08:58:02.375Z,2076
2016-12-30T08:59:02.420Z,2096
2016-12-30T09:00:02.864Z,2144
2016-12-30T09:01:02.543Z,2156
2016-12-30T09:02:02.607Z,2176
2016-12-30T09:03:02.670Z,2196
2016-12-30T09:04:02.713Z,2228
2016-12-30T09:05:02.776Z,2260
2016-12-30T09:06:02.821Z,2292
2016-12-30T09:07:02.883Z,2324
2016-12-30T09:08:02.934Z,2364
2016-12-30T09:09:03.002Z,2400
2016-12-30T09:10:03.048Z,2440
2016-12-30T09:11:03.143Z,2488
2016-12-30T09:12:03.175Z,2536
2016-12-30T09:13:03.230Z,2584
2016-12-30T09:14:03.279Z,2640
2016-12-30T09:15:03.340Z,2724
2016-12-30T09:16:03.394Z,2788
2016-12-30T09:17:03.447Z,2852
2016-12-30T09:18:03.506Z,2936
2016-12-30T09:19:03.562Z,3044
2016-12-30T09:20:03.630Z,3152
2016-12-30T09:21:03.679Z,3304
2016-12-30T09:22:03.733Z,3528
2016-12-30T09:23:03.783Z,3836
2016-12-30T09:24:03.847Z,4372
2016-12-30T09:25:03.928Z,12512
2016-12-30T09:26:03.960Z,33184
2016-12-30T09:27:04.024Z,44736
2016-12-30T09:28:04.071Z,46912
2016-12-30T09:29:04.164Z,48864
2016-12-30T09:30:04.188Z,48736
2016-12-30T09:31:04.240Z,48800
2016-12-30T09:32:04.295Z,48640
2016-12-30T09:33:04.352Z,47360
2016-12-30T09:34:04.425Z,47968
2016-12-30T09:35:04.477Z,50144
2016-12-30T09:36:04.532Z,49728
2016-12-30T09:37:04.588Z,48864
2016-12-30T09:38:04.643Z,49280
2016-12-30T09:39:04.714Z,50688
2016-12-30T09:40:04.759Z,51264
2016-12-30T09:41:04.807Z,51136
2016-12-30T09:42:04.875Z,51264
2016-12-30T09:43:04.931Z,51520
2016-12-30T09:44:04.994Z,51232
2016-12-30T09:45:05.042Z,49408
2016-12-30T09:46:05.098Z,49824
2016-12-30T09:47:05.159Z,50528
2016-12-30T09:48:05.223Z,50176
2016-12-30T09:49:05.273Z,49024
2016-12-30T09:50:05.338Z,50592
2016-12-30T09:51:05.387Z,49952
2016-12-30T09:52:05.446Z,45024
2016-12-30T09:53:05.494Z,37152
2016-12-30T09:54:05.559Z,31648
2016-12-30T09:55:05.610Z,26464
2016-12-30T09:56:05.667Z,26048
2016-12-30T09:57:05.743Z,26720
2016-12-30T09:58:05.793Z,27872
2016-12-30T09:59:05.845Z,32672
2016-12-30T10:00:05.900Z,37376
2016-12-30T10:01:05.967Z,44352
2016-12-30T10:02:06.013Z,50112
2016-12-30T10:03:06.081Z,55168
2016-12-30T10:04:06.137Z,58528
2016-12-30T10:05:06.963Z,56480
2016-12-30T10:06:06.250Z,56832
2016-12-30T10:07:06.300Z,54720
2016-12-30T10:08:06.364Z,54304
2016-12-30T10:09:06.412Z,53600
2016-12-30T10:10:06.472Z,52416
2016-12-30T10:11:06.522Z,51776
2016-12-30T10:12:06.589Z,53216
2016-12-30T10:13:06.647Z,53824
2016-12-30T10:14:06.701Z,53824
2016-12-30T10:15:06.765Z,53888
2016-12-30T10:16:06.814Z,53728
2016-12-30T10:17:06.868Z,53536
2016-12-30T10:18:06.928Z,55168
2016-12-30T10:19:06.981Z,57728
2016-12-30T10:20:07.047Z,59584
2016-12-30T10:21:07.095Z,58816
2016-12-30T10:22:07.157Z,57824
2016-12-30T10:23:07.220Z,59360
2016-12-30T10:24:07.268Z,60160
2016-12-30T10:25:07.336Z,61760
2016-12-30T10:26:07.392Z,61120
2016-12-30T10:27:07.453Z,59360
2016-12-30T10:28:07.505Z,58848
2016-12-30T10:29:07.551Z,58592
2016-12-30T10:30:07.616Z,58048
2016-12-30T10:31:07.682Z,59424
2016-12-30T10:32:07.742Z,59808
2016-12-30T10:33:07.795Z,60800
2016-12-30T10:34:07.848Z,60480
2016-12-30T10:35:07.910Z,60128
2016-12-30T10:36:07.976Z,59104
2016-12-30T10:37:08.017Z,55040
2016-12-30T10:38:08.080Z,55872
2016-12-30T10:39:08.129Z,57024
2016-12-30T10:40:08.200Z,55392
2016-12-30T10:41:08.245Z,55488
2016-12-30T10:42:08.317Z,59168
2016-12-30T10:43:08.354Z,60864
2016-12-30T10:44:08.411Z,58816
2016-12-30T10:45:08.482Z,59008
2016-12-30T10:46:08.534Z,60928
2016-12-30T10:47:08.585Z,58976
2016-12-30T10:48:08.653Z,59296
2016-12-30T10:49:08.706Z,59872
2016-12-30T10:50:08.761Z,58432
2016-12-30T10:51:08.845Z,57920
2016-12-30T10:52:08.879Z,58400
2016-12-30T10:53:08.943Z,59712
2016-12-30T10:54:09.003Z,59872
2016-12-30T10:55:09.045Z,60928
2016-12-30T10:56:09.112Z,59424
2016-12-30T10:57:09.166Z,60704
2016-12-30T10:58:09.217Z,58208
2016-12-30T10:59:09.274Z,59520
2016-12-30T11:00:09.339Z,60832
2016-12-30T11:01:09.391Z,60064
2016-12-30T11:02:09.447Z,60288
2016-12-30T11:03:09.509Z,62336
2016-12-30T11:04:09.568Z,60480
2016-12-30T11:05:09.620Z,60128
2016-12-30T11:06:09.672Z,60032
2016-12-30T11:07:09.735Z,59840
2016-12-30T11:08:09.791Z,58112
2016-12-30T11:09:09.856Z,58848
2016-12-30T11:10:09.909Z,58816
2016-12-30T11:11:09.971Z,58368
2016-12-30T11:12:10.018Z,59296
2016-12-30T11:13:10.083Z,60128
2016-12-30T11:14:10.138Z,63488
2016-12-30T11:15:10.181Z,62432
2016-12-30T11:16:10.242Z,62848
2016-12-30T11:17:10.300Z,64768
2016-12-30T11:18:10.362Z,62784
2016-12-30T11:19:10.426Z,60864
2016-12-30T11:20:10.473Z,61088
2016-12-30T11:21:10.536Z,59392
2016-12-30T11:22:10.582Z,58624
2016-12-30T11:23:10.686Z,58848
2016-12-30T11:24:10.702Z,60288
2016-12-30T11:25:10.757Z,61184
2016-12-30T11:26:10.817Z,61216
2016-12-30T11:27:10.868Z,60896
2016-12-30T11:28:10.930Z,59616
2016-12-30T11:29:10.990Z,62048
2016-12-30T11:30:11.044Z,61536
2016-12-30T11:31:11.097Z,61344
2016-12-30T11:32:11.158Z,60352
2016-12-30T11:33:11.213Z,60800
2016-12-30T11:34:11.281Z,58464
2016-12-30T11:35:11.338Z,56480
2016-12-30T11:36:11.391Z,55968
2016-12-30T11:37:11.449Z,58400
2016-12-30T11:38:11.499Z,61376
2016-12-30T11:39:11.563Z,61280
2016-12-30T11:40:11.610Z,60448
2016-12-30T11:41:11.683Z,60640
2016-12-30T11:42:11.732Z,62368
2016-12-30T11:43:11.823Z,61760
2016-12-30T11:44:11.838Z,62624
2016-12-30T11:45:11.905Z,63584
2016-12-30T11:46:11.968Z,63232
2016-12-30T11:47:12.019Z,62976
2016-12-30T11:48:12.069Z,63168
2016-12-30T11:49:12.137Z,63040
2016-12-30T11:50:12.202Z,66464
2016-12-30T11:51:12.243Z,62624
2016-12-30T11:52:12.311Z,64000
2016-12-30T11:53:12.358Z,64736
2016-12-30T11:54:12.421Z,61888
2016-12-30T11:55:12.481Z,65632
2016-12-30T11:56:12.542Z,63712
2016-12-30T11:57:12.594Z,65440
2016-12-30T11:58:12.645Z,66080
2016-12-30T11:59:12.705Z,63424
2016-12-30T12:00:12.767Z,63904
2016-12-30T12:01:12.823Z,57248
2016-12-30T12:02:12.934Z,56672
2016-12-30T12:03:12.939Z,51552
2016-12-30T12:04:12.992Z,48064
2016-12-30T12:05:13.052Z,44064
2016-12-30T12:06:13.121Z,37120
2016-12-30T12:07:13.163Z,36960
2016-12-30T12:08:13.238Z,32384
2016-12-30T12:09:13.285Z,36672
2016-12-30T12:10:13.351Z,38592
2016-12-30T12:11:13.401Z,47968
2016-12-30T12:12:13.477Z,52128
2016-12-30T12:13:13.521Z,57376
2016-12-30T12:14:13.589Z,65280
2016-12-30T12:15:13.639Z,63584
2016-12-30T12:16:13.692Z,64832
2016-12-30T12:17:13.777Z,66656
2016-12-30T12:18:13.823Z,62176
2016-12-30T12:19:13.882Z,62464
2016-12-30T12:20:13.939Z,58720
2016-12-30T12:21:14.374Z,57600
2016-12-30T12:22:14.053Z,62176
2016-12-30T12:23:14.109Z,61792
2016-12-30T12:24:14.202Z,62240
2016-12-30T12:25:14.225Z,62752
2016-12-30T12:26:14.289Z,59968
2016-12-30T12:27:14.353Z,58560
2016-12-30T12:28:14.399Z,54624
2016-12-30T12:29:14.467Z,51168
2016-12-30T12:30:14.511Z,51328
2016-12-30T12:31:14.570Z,54336
2016-12-30T12:32:14.634Z,51360
2016-12-30T12:33:14.700Z,51520
2016-12-30T12:34:14.745Z,57344
2016-12-30T12:35:14.803Z,54656
2016-12-30T12:36:14.873Z,54912
2016-12-30T12:37:14.924Z,60160
2016-12-30T12:38:14.993Z,58176
2016-12-30T12:39:15.044Z,59776
2016-12-30T12:40:15.101Z,61248
2016-12-30T12:41:15.159Z,64544
2016-12-30T12:42:15.212Z,61472
2016-12-30T12:43:15.282Z,55840
2016-12-30T12:44:15.331Z,58048
2016-12-30T12:45:15.397Z,63040
2016-12-30T12:46:15.447Z,57792
2016-12-30T12:47:15.499Z,57568
2016-12-30T12:48:15.768Z,55104
2016-12-30T12:49:15.633Z,56928
2016-12-30T12:50:15.679Z,61312
2016-12-30T12:51:15.738Z,55296
2016-12-30T12:52:15.797Z,55392
2016-12-30T12:53:15.861Z,55136
2016-12-30T12:54:15.901Z,52672
2016-12-30T12:55:15.977Z,53856
2016-12-30T12:56:16.022Z,51520
2016-12-30T12:57:16.088Z,54368
2016-12-30T12:58:16.140Z,50944
2016-12-30T12:59:16.198Z,50752
2016-12-30T13:00:16.251Z,55904
2016-12-30T13:01:16.311Z,51776
2016-12-30T13:02:16.366Z,49568
2016-12-30T13:03:16.425Z,51360
2016-12-30T13:04:16.484Z,46080
2016-12-30T13:05:16.544Z,48320
2016-12-30T13:06:16.605Z,49088
2016-12-30T13:07:16.651Z,46688
2016-12-30T13:08:16.713Z,47040
2016-12-30T13:09:16.774Z,46912
2016-12-30T13:10:16.836Z,49440
2016-12-30T13:11:16.881Z,46368
2016-12-30T13:12:16.945Z,44608
2016-12-30T13:13:17.046Z,46272
2016-12-30T13:14:17.064Z,47296
2016-12-30T13:15:17.111Z,45056
2016-12-30T13:16:17.180Z,44736
2016-12-30T13:17:17.227Z,44928
2016-12-30T13:18:17.283Z,43616
2016-12-30T13:19:17.347Z,43648
2016-12-30T13:20:17.390Z,40672
2016-12-30T13:21:17.452Z,39552
2016-12-30T13:22:17.517Z,38848
2016-12-30T13:23:17.567Z,38432
2016-12-30T13:24:17.633Z,40864
2016-12-30T13:25:17.682Z,40704
2016-12-30T13:26:17.741Z,42912
2016-12-30T13:27:17.799Z,43936
2016-12-30T13:28:17.854Z,41120
2016-12-30T13:29:17.915Z,40736
2016-12-30T13:30:17.960Z,40704
2016-12-30T13:31:18.028Z,40512
2016-12-30T13:32:18.090Z,39360
2016-12-30T13:33:18.147Z,39488
2016-12-30T13:34:18.197Z,38496
2016-12-30T13:35:18.247Z,36096
2016-12-30T13:36:18.312Z,38112
2016-12-30T13:37:18.366Z,39744
2016-12-30T13:38:18.424Z,39840
2016-12-30T13:39:18.491Z,37984
2016-12-30T13:40:18.532Z,32064
2016-12-30T13:41:18.600Z,25504
2016-12-30T13:42:18.649Z,27296
2016-12-30T13:43:18.711Z,25888
2016-12-30T13:44:18.959Z,26176
2016-12-30T13:45:18.819Z,26016
2016-12-30T13:46:18.874Z,29216
2016-12-30T13:47:18.937Z,29824
2016-12-30T13:48:19.001Z,30048
2016-12-30T13:49:19.056Z,30048
2016-12-30T13:50:19.097Z,30048
2016-12-30T13:51:19.166Z,30912
2016-12-30T13:52:19.227Z,31104
2016-12-30T13:53:19.274Z,30784
2016-12-30T13:54:19.336Z,30432
2016-12-30T13:55:19.394Z,30944
2016-12-30T13:56:19.458Z,28480